sensor_id;sensor_type;location;lat;lon;timestamp;pressure;altitude;pressure_sealevel;temperature;humidity
10921;BME280;5513;50.580;8.818;2022-12-29T00:00:26;98237.00;;;8.53;100.00
10921;BME280;5513;50.580;8.818;2022-12-29T00:02:58;98230.22;;;8.62;100.00
10921;BME280;5513;50.580;8.818;2022-12-29T00:05:27;98223.56;;;8.56;100.00
10921;BME280;5513;50.580;8.818;2022-12-29T00:07:59;98222.91;;;8.65;100.00
10921;BME280;5513;50.580;8.818;2022-12-29T00:10:28;98241.03;;;8.82;100.00
10921;BME280;5513;50.580;8.818;2022-12-29T00:12:59;98227.47;;;9.00;100.00
10921;BME280;5513;50.580;8.818;2022-12-29T00:15:44;98223.31;;;9.08;100.00
10921;BME280;5513;50.580;8.818;2022-12-29T00:18:17;98232.03;;;9.22;100.00
10921;BME280;5513;50.580;8.818;2022-12-29T00:20:46;98227.25;;;9.27;100.00
10921;BME280;5513;50.580;8.818;2022-12-29T00:23:36;98232.25;;;9.42;100.00
10921;BME280;5513;50.580;8.818;2022-12-29T00:26:21;98226.00;;;9.43;100.00
10921;BME280;5513;50.580;8.818;2022-12-29T00:29:08;98211.63;;;9.48;100.00
10921;BME280;5513;50.580;8.818;2022-12-29T00:31:54;98212.38;;;9.61;100.00
10921;BME280;5513;50.580;8.818;2022-12-29T00:34:41;98218.25;;;9.64;100.00
10921;BME280;5513;50.580;8.818;2022-12-29T00:37:26;98216.44;;;9.65;100.00
10921;BME280;5513;50.580;8.818;2022-12-29T00:40:09;98209.72;;;9.61;100.00
10921;BME280;5513;50.580;8.818;2022-12-29T00:42:55;98205.66;;;9.68;100.00
10921;BME280;5513;50.580;8.818;2022-12-29T00:45:40;98218.53;;;9.84;100.00
10921;BME280;5513;50.580;8.818;2022-12-29T00:48:09;98225.16;;;9.78;100.00
10921;BME280;5513;50.580;8.818;2022-12-29T00:50:39;98199.56;;;9.79;100.00
10921;BME280;5513;50.580;8.818;2022-12-29T00:53:08;98206.91;;;9.86;100.00
10921;BME280;5513;50.580;8.818;2022-12-29T00:55:38;98233.38;;;9.86;100.00
10921;BME280;5513;50.580;8.818;2022-12-29T00:58:06;98218.53;;;9.84;100.00
10921;BME280;5513;50.580;8.818;2022-12-29T01:00:34;98201.97;;;9.82;100.00
10921;BME280;5513;50.580;8.818;2022-12-29T01:03:06;98192.16;;;9.95;100.00
10921;BME280;5513;50.580;8.818;2022-12-29T01:05:36;98199.00;;;9.97;100.00
10921;BME280;5513;50.580;8.818;2022-12-29T01:08:07;98194.78;;;9.95;100.00
10921;BME280;5513;50.580;8.818;2022-12-29T01:10:35;98187.66;;;9.84;100.00
10921;BME280;5513;50.580;8.818;2022-12-29T01:13:02;98176.38;;;9.93;100.00
10921;BME280;5513;50.580;8.818;2022-12-29T01:15:30;98173.13;;;9.90;100.00
10921;BME280;5513;50.580;8.818;2022-12-29T01:17:59;98171.44;;;9.78;100.00
10921;BME280;5513;50.580;8.818;2022-12-29T01:20:27;98180.94;;;9.91;100.00
10921;BME280;5513;50.580;8.818;2022-12-29T01:22:56;98183.97;;;9.98;100.00
10921;BME280;5513;50.580;8.818;2022-12-29T01:25:27;98180.81;;;9.82;100.00
10921;BME280;5513;50.580;8.818;2022-12-29T01:27:55;98175.41;;;9.83;100.00
10921;BME280;5513;50.580;8.818;2022-12-29T01:30:26;98182.88;;;9.89;100.00
10921;BME280;5513;50.580;8.818;2022-12-29T01:32:55;98174.69;;;9.92;100.00
10921;BME280;5513;50.580;8.818;2022-12-29T01:35:23;98200.69;;;9.98;100.00
10921;BME280;5513;50.580;8.818;2022-12-29T01:37:52;98183.25;;;10.18;100.00
10921;BME280;5513;50.580;8.818;2022-12-29T01:40:20;98178.38;;;10.25;100.00
10921;BME280;5513;50.580;8.818;2022-12-29T01:42:51;98189.16;;;10.22;100.00
10921;BME280;5513;50.580;8.818;2022-12-29T01:45:22;98177.47;;;10.13;100.00
10921;BME280;5513;50.580;8.818;2022-12-29T01:47:53;98204.09;;;10.23;100.00
10921;BME280;5513;50.580;8.818;2022-12-29T01:50:32;98184.50;;;10.37;100.00
10921;BME280;5513;50.580;8.818;2022-12-29T01:53:04;98190.88;;;10.34;100.00
10921;BME280;5513;50.580;8.818;2022-12-29T01:55:40;98192.31;;;10.38;100.00
10921;BME280;5513;50.580;8.818;2022-12-29T01:58:13;98186.41;;;10.46;100.00
10921;BME280;5513;50.580;8.818;2022-12-29T02:00:43;98188.09;;;10.47;100.00
10921;BME280;5513;50.580;8.818;2022-12-29T02:03:12;98194.22;;;10.47;100.00
10921;BME280;5513;50.580;8.818;2022-12-29T02:05:46;98212.75;;;10.58;100.00
10921;BME280;5513;50.580;8.818;2022-12-29T02:08:16;98204.47;;;10.63;100.00
10921;BME280;5513;50.580;8.818;2022-12-29T02:10:45;98201.81;;;10.63;100.00
10921;BME280;5513;50.580;8.818;2022-12-29T02:13:17;98193.50;;;10.68;100.00
10921;BME280;5513;50.580;8.818;2022-12-29T02:15:54;98195.31;;;10.67;100.00
10921;BME280;5513;50.580;8.818;2022-12-29T02:18:39;98192.25;;;10.94;100.00
10921;BME280;5513;50.580;8.818;2022-12-29T02:27:36;98176.03;;;10.76;100.00
10921;BME280;5513;50.580;8.818;2022-12-29T02:33:47;98168.06;;;10.76;100.00
10921;BME280;5513;50.580;8.818;2022-12-29T02:36:26;98170.88;;;10.64;100.00
10921;BME280;5513;50.580;8.818;2022-12-29T02:39:02;98177.00;;;10.75;100.00
10921;BME280;5513;50.580;8.818;2022-12-29T02:41:37;98177.59;;;10.68;100.00
10921;BME280;5513;50.580;8.818;2022-12-29T02:44:16;98170.47;;;10.79;100.00
10921;BME280;5513;50.580;8.818;2022-12-29T02:46:52;98172.88;;;10.82;100.00
10921;BME280;5513;50.580;8.818;2022-12-29T02:49:30;98169.28;;;10.83;100.00
10921;BME280;5513;50.580;8.818;2022-12-29T02:52:03;98170.13;;;10.73;100.00
10921;BME280;5513;50.580;8.818;2022-12-29T02:54:33;98164.00;;;10.72;100.00
10921;BME280;5513;50.580;8.818;2022-12-29T02:57:14;98155.31;;;10.70;100.00
10921;BME280;5513;50.580;8.818;2022-12-29T02:59:45;98166.03;;;10.69;100.00
10921;BME280;5513;50.580;8.818;2022-12-29T03:02:34;98145.69;;;10.69;100.00
10921;BME280;5513;50.580;8.818;2022-12-29T03:08:18;98153.63;;;10.69;100.00
10921;BME280;5513;50.580;8.818;2022-12-29T03:10:55;98145.56;;;10.71;100.00
10921;BME280;5513;50.580;8.818;2022-12-29T03:13:31;98146.06;;;10.76;100.00
10921;BME280;5513;50.580;8.818;2022-12-29T03:16:21;98144.84;;;10.69;100.00
10921;BME280;5513;50.580;8.818;2022-12-29T03:18:58;98165.56;;;10.75;100.00
10921;BME280;5513;50.580;8.818;2022-12-29T03:21:33;98147.59;;;10.78;100.00
10921;BME280;5513;50.580;8.818;2022-12-29T03:24:26;98154.56;;;10.79;100.00
10921;BME280;5513;50.580;8.818;2022-12-29T03:26:58;98150.25;;;10.78;100.00
10921;BME280;5513;50.580;8.818;2022-12-29T03:29:29;98149.19;;;10.70;100.00
10921;BME280;5513;50.580;8.818;2022-12-29T03:32:01;98143.19;;;10.68;100.00
10921;BME280;5513;50.580;8.818;2022-12-29T03:34:32;98141.25;;;10.58;100.00
10921;BME280;5513;50.580;8.818;2022-12-29T03:37:05;98138.03;;;10.55;100.00
10921;BME280;5513;50.580;8.818;2022-12-29T03:39:36;98140.94;;;10.52;100.00
10921;BME280;5513;50.580;8.818;2022-12-29T03:42:06;98135.63;;;10.41;100.00
10921;BME280;5513;50.580;8.818;2022-12-29T03:44:41;98148.75;;;10.53;100.00
10921;BME280;5513;50.580;8.818;2022-12-29T03:47:10;98140.06;;;10.51;100.00
10921;BME280;5513;50.580;8.818;2022-12-29T03:49:40;98144.28;;;10.54;100.00
10921;BME280;5513;50.580;8.818;2022-12-29T03:52:09;98143.91;;;10.58;100.00
10921;BME280;5513;50.580;8.818;2022-12-29T03:54:39;98140.06;;;10.51;100.00
10921;BME280;5513;50.580;8.818;2022-12-29T03:57:08;98136.69;;;10.60;100.00
10921;BME280;5513;50.580;8.818;2022-12-29T03:59:37;98136.72;;;10.49;100.00
10921;BME280;5513;50.580;8.818;2022-12-29T04:02:07;98132.22;;;10.61;100.00
10921;BME280;5513;50.580;8.818;2022-12-29T04:04:36;98136.22;;;10.55;100.00
10921;BME280;5513;50.580;8.818;2022-12-29T04:07:06;98135.50;;;10.53;100.00
10921;BME280;5513;50.580;8.818;2022-12-29T04:09:41;98133.84;;;10.52;100.00
10921;BME280;5513;50.580;8.818;2022-12-29T04:12:09;98133.47;;;10.46;100.00
10921;BME280;5513;50.580;8.818;2022-12-29T04:14:38;98133.47;;;10.46;100.00
10921;BME280;5513;50.580;8.818;2022-12-29T04:17:06;98121.91;;;10.47;100.00
10921;BME280;5513;50.580;8.818;2022-12-29T04:19:35;98136.25;;;10.44;100.00
10921;BME280;5513;50.580;8.818;2022-12-29T04:22:04;98130.81;;;10.46;100.00
10921;BME280;5513;50.580;8.818;2022-12-29T04:24:32;98133.13;;;10.39;100.00
10921;BME280;5513;50.580;8.818;2022-12-29T04:27:03;98136.25;;;10.44;100.00
10921;BME280;5513;50.580;8.818;2022-12-29T04:29:34;98140.44;;;10.47;100.00
10921;BME280;5513;50.580;8.818;2022-12-29T04:32:02;98143.94;;;10.47;100.00
10921;BME280;5513;50.580;8.818;2022-12-29T04:34:31;98119.97;;;10.49;100.00
10921;BME280;5513;50.580;8.818;2022-12-29T04:37:00;98126.38;;;10.46;100.00
10921;BME280;5513;50.580;8.818;2022-12-29T04:39:29;98129.59;;;10.50;100.00
10921;BME280;5513;50.580;8.818;2022-12-29T04:41:59;98131.78;;;10.45;100.00
10921;BME280;5513;50.580;8.818;2022-12-29T04:44:29;98143.34;;;10.44;100.00
10921;BME280;5513;50.580;8.818;2022-12-29T04:46:57;98141.78;;;10.52;100.00
10921;BME280;5513;50.580;8.818;2022-12-29T04:49:25;98145.34;;;10.51;100.00
10921;BME280;5513;50.580;8.818;2022-12-29T04:51:54;98145.50;;;10.50;100.00
10921;BME280;5513;50.580;8.818;2022-12-29T04:54:22;98144.66;;;10.49;100.00
10921;BME280;5513;50.580;8.818;2022-12-29T04:56:50;98139.47;;;10.48;100.00
10921;BME280;5513;50.580;8.818;2022-12-29T04:59:22;98134.06;;;10.49;100.00
10921;BME280;5513;50.580;8.818;2022-12-29T05:01:53;98128.06;;;10.47;100.00
10921;BME280;5513;50.580;8.818;2022-12-29T05:04:24;98126.59;;;10.54;100.00
10921;BME280;5513;50.580;8.818;2022-12-29T05:06:52;98118.28;;;10.59;100.00
10921;BME280;5513;50.580;8.818;2022-12-29T05:09:21;98129.22;;;10.66;100.00
10921;BME280;5513;50.580;8.818;2022-12-29T05:11:50;98111.78;;;10.63;100.00
10921;BME280;5513;50.580;8.818;2022-12-29T05:14:19;98136.19;;;10.67;100.00
10921;BME280;5513;50.580;8.818;2022-12-29T05:16:47;98126.00;;;10.51;100.00
10921;BME280;5513;50.580;8.818;2022-12-29T05:19:18;98123.84;;;10.45;100.00
10921;BME280;5513;50.580;8.818;2022-12-29T05:21:47;98128.44;;;10.43;100.00
10921;BME280;5513;50.580;8.818;2022-12-29T05:24:16;98123.38;;;10.40;100.00
10921;BME280;5513;50.580;8.818;2022-12-29T05:26:44;98132.28;;;10.39;100.00
10921;BME280;5513;50.580;8.818;2022-12-29T05:29:12;98123.03;;;10.33;100.00
10921;BME280;5513;50.580;8.818;2022-12-29T05:31:43;98132.28;;;10.27;100.00
10921;BME280;5513;50.580;8.818;2022-12-29T05:34:12;98128.53;;;10.41;100.00
10921;BME280;5513;50.580;8.818;2022-12-29T05:36:42;98130.84;;;10.35;100.00
10921;BME280;5513;50.580;8.818;2022-12-29T05:39:10;98133.00;;;10.29;100.00
10921;BME280;5513;50.580;8.818;2022-12-29T05:41:41;98130.00;;;10.34;100.00
10921;BME280;5513;50.580;8.818;2022-12-29T05:44:11;98121.44;;;10.42;100.00
10921;BME280;5513;50.580;8.818;2022-12-29T05:46:41;98130.59;;;10.38;100.00
10921;BME280;5513;50.580;8.818;2022-12-29T05:49:10;98121.81;;;10.37;100.00
10921;BME280;5513;50.580;8.818;2022-12-29T05:51:39;98114.22;;;10.32;100.00
10921;BME280;5513;50.580;8.818;2022-12-29T05:54:11;98120.72;;;10.40;100.00
10921;BME280;5513;50.580;8.818;2022-12-29T05:56:40;98116.03;;;10.43;100.00
10921;BME280;5513;50.580;8.818;2022-12-29T05:59:09;98102.69;;;10.45;100.00
10921;BME280;5513;50.580;8.818;2022-12-29T06:01:37;98107.94;;;10.56;100.00
10921;BME280;5513;50.580;8.818;2022-12-29T06:04:07;98112.28;;;10.46;100.00
10921;BME280;5513;50.580;8.818;2022-12-29T06:06:39;98101.59;;;10.47;100.00
10921;BME280;5513;50.580;8.818;2022-12-29T06:09:11;98097.59;;;10.53;100.00
10921;BME280;5513;50.580;8.818;2022-12-29T06:11:40;98108.81;;;10.45;100.00
10921;BME280;5513;50.580;8.818;2022-12-29T06:14:08;98099.06;;;10.46;100.00
10921;BME280;5513;50.580;8.818;2022-12-29T06:16:38;98116.38;;;10.50;100.00
10921;BME280;5513;50.580;8.818;2022-12-29T06:19:07;98118.66;;;10.54;100.00
10921;BME280;5513;50.580;8.818;2022-12-29T06:21:36;98093.88;;;10.55;100.00
10921;BME280;5513;50.580;8.818;2022-12-29T06:24:06;98113.38;;;10.54;100.00
10921;BME280;5513;50.580;8.818;2022-12-29T06:26:37;98093.63;;;10.47;100.00
10921;BME280;5513;50.580;8.818;2022-12-29T06:29:07;98110.75;;;10.43;100.00
10921;BME280;5513;50.580;8.818;2022-12-29T06:31:37;98099.91;;;10.46;100.00
10921;BME280;5513;50.580;8.818;2022-12-29T06:34:06;98128.44;;;10.43;100.00
10921;BME280;5513;50.580;8.818;2022-12-29T06:36:34;98102.28;;;10.49;100.00
10921;BME280;5513;50.580;8.818;2022-12-29T06:39:05;98103.66;;;10.44;100.00
10921;BME280;5513;50.580;8.818;2022-12-29T06:41:34;98110.00;;;10.52;100.00
10921;BME280;5513;50.580;8.818;2022-12-29T06:44:04;98117.34;;;10.49;100.00
10921;BME280;5513;50.580;8.818;2022-12-29T06:46:32;98100.72;;;10.58;100.00
10921;BME280;5513;50.580;8.818;2022-12-29T06:49:02;98108.66;;;10.58;100.00
10921;BME280;5513;50.580;8.818;2022-12-29T06:51:33;98109.16;;;10.52;100.00
10921;BME280;5513;50.580;8.818;2022-12-29T06:54:01;98101.09;;;10.53;100.00
10921;BME280;5513;50.580;8.818;2022-12-29T06:56:30;98111.72;;;10.42;100.00
10921;BME280;5513;50.580;8.818;2022-12-29T06:58:58;98118.03;;;10.51;100.00
10921;BME280;5513;50.580;8.818;2022-12-29T07:01:31;98099.78;;;10.48;100.00
10921;BME280;5513;50.580;8.818;2022-12-29T07:04:04;98113.09;;;10.57;100.00
10921;BME280;5513;50.580;8.818;2022-12-29T07:06:34;98101.31;;;10.50;100.00
10921;BME280;5513;50.580;8.818;2022-12-29T07:09:03;98094.63;;;10.35;100.00
10921;BME280;5513;50.580;8.818;2022-12-29T07:11:32;98097.16;;;10.37;100.00
10921;BME280;5513;50.580;8.818;2022-12-29T07:14:01;98099.94;;;10.24;100.00
10921;BME280;5513;50.580;8.818;2022-12-29T07:16:31;98093.16;;;10.20;100.00
10921;BME280;5513;50.580;8.818;2022-12-29T07:19:01;98105.56;;;10.19;100.00
10921;BME280;5513;50.580;8.818;2022-12-29T07:21:32;98096.78;;;10.19;100.00
10921;BME280;5513;50.580;8.818;2022-12-29T07:24:01;98102.06;;;10.19;100.00
10921;BME280;5513;50.580;8.818;2022-12-29T07:26:30;98100.66;;;10.15;100.00
10921;BME280;5513;50.580;8.818;2022-12-29T07:29:02;98107.50;;;10.17;100.00
10921;BME280;5513;50.580;8.818;2022-12-29T07:31:34;98115.81;;;10.24;100.00
10921;BME280;5513;50.580;8.818;2022-12-29T07:34:02;98111.38;;;10.24;100.00
10921;BME280;5513;50.580;8.818;2022-12-29T07:36:33;98122.94;;;10.23;100.00
10921;BME280;5513;50.580;8.818;2022-12-29T07:39:02;98121.44;;;10.19;100.00
10921;BME280;5513;50.580;8.818;2022-12-29T07:41:31;98118.94;;;10.29;100.00
10921;BME280;5513;50.580;8.818;2022-12-29T07:44:00;98114.47;;;10.29;100.00
10921;BME280;5513;50.580;8.818;2022-12-29T07:46:29;98106.19;;;10.23;100.00
10921;BME280;5513;50.580;8.818;2022-12-29T07:49:19;98154.03;;;10.31;100.00
10921;BME280;5513;50.580;8.818;2022-12-29T07:51:47;98127.81;;;10.39;100.00
10921;BME280;5513;50.580;8.818;2022-12-29T07:54:16;98125.78;;;10.43;100.00
10921;BME280;5513;50.580;8.818;2022-12-29T07:56:45;98115.06;;;10.44;100.00
10921;BME280;5513;50.580;8.818;2022-12-29T07:59:13;98117.59;;;10.46;100.00
10921;BME280;5513;50.580;8.818;2022-12-29T08:01:42;98122.75;;;10.47;100.00
10921;BME280;5513;50.580;8.818;2022-12-29T08:04:14;98115.88;;;10.56;100.00
10921;BME280;5513;50.580;8.818;2022-12-29T08:06:44;98101.19;;;10.63;100.00
10921;BME280;5513;50.580;8.818;2022-12-29T08:09:13;98117.44;;;10.58;100.00
10921;BME280;5513;50.580;8.818;2022-12-29T08:11:48;98099.88;;;10.57;100.00
10921;BME280;5513;50.580;8.818;2022-12-29T08:14:17;98114.78;;;10.58;100.00
10921;BME280;5513;50.580;8.818;2022-12-29T08:16:45;98127.53;;;10.65;100.00
10921;BME280;5513;50.580;8.818;2022-12-29T08:19:14;98112.25;;;10.68;100.00
10921;BME280;5513;50.580;8.818;2022-12-29T08:21:42;98113.34;;;10.66;100.00
10921;BME280;5513;50.580;8.818;2022-12-29T08:24:15;98114.13;;;10.77;100.00
10921;BME280;5513;50.580;8.818;2022-12-29T08:26:43;98120.88;;;10.81;100.00
10921;BME280;5513;50.580;8.818;2022-12-29T08:29:11;98122.31;;;10.85;100.00
10921;BME280;5513;50.580;8.818;2022-12-29T08:31:40;98115.69;;;10.91;100.00
10921;BME280;5513;50.580;8.818;2022-12-29T08:34:09;98147.72;;;10.77;100.00
10921;BME280;5513;50.580;8.818;2022-12-29T08:36:38;98143.63;;;10.84;100.00
10921;BME280;5513;50.580;8.818;2022-12-29T08:39:07;98137.94;;;10.88;100.00
10921;BME280;5513;50.580;8.818;2022-12-29T08:41:38;98159.25;;;10.87;100.00
10921;BME280;5513;50.580;8.818;2022-12-29T08:44:06;98164.09;;;10.82;100.00
10921;BME280;5513;50.580;8.818;2022-12-29T08:46:35;98177.72;;;10.66;100.00
10921;BME280;5513;50.580;8.818;2022-12-29T08:49:04;98200.22;;;10.60;100.00
10921;BME280;5513;50.580;8.818;2022-12-29T08:51:35;98213.97;;;10.54;100.00
10921;BME280;5513;50.580;8.818;2022-12-29T08:54:06;98208.91;;;10.63;100.00
10921;BME280;5513;50.580;8.818;2022-12-29T08:56:38;98221.31;;;10.40;100.00
10921;BME280;5513;50.580;8.818;2022-12-29T08:59:07;98221.44;;;10.38;100.00
10921;BME280;5513;50.580;8.818;2022-12-29T09:01:35;98210.97;;;10.48;100.00
10921;BME280;5513;50.580;8.818;2022-12-29T09:04:08;98220.13;;;10.44;100.00
10921;BME280;5513;50.580;8.818;2022-12-29T09:06:42;98199.41;;;10.49;100.00
10921;BME280;5513;50.580;8.818;2022-12-29T09:09:11;98210.00;;;10.49;100.00
10921;BME280;5513;50.580;8.818;2022-12-29T09:11:42;98216.75;;;10.53;100.00
10921;BME280;5513;50.580;8.818;2022-12-29T09:14:10;98219.97;;;10.56;100.00
10921;BME280;5513;50.580;8.818;2022-12-29T09:16:39;98225.53;;;10.53;100.00
10921;BME280;5513;50.580;8.818;2022-12-29T09:19:26;98221.53;;;10.59;100.00
10921;BME280;5513;50.580;8.818;2022-12-29T09:21:54;98241.16;;;10.56;100.00
10921;BME280;5513;50.580;8.818;2022-12-29T09:24:22;98245.75;;;10.54;100.00
10921;BME280;5513;50.580;8.818;2022-12-29T09:26:52;98248.25;;;10.67;100.00
10921;BME280;5513;50.580;8.818;2022-12-29T09:29:23;98239.09;;;10.60;100.00
10921;BME280;5513;50.580;8.818;2022-12-29T09:31:52;98239.94;;;10.60;100.00
10921;BME280;5513;50.580;8.818;2022-12-29T09:34:22;98239.72;;;10.64;100.00
10921;BME280;5513;50.580;8.818;2022-12-29T09:36:51;98245.63;;;10.67;100.00
10921;BME280;5513;50.580;8.818;2022-12-29T09:39:19;98240.19;;;10.69;100.00
10921;BME280;5513;50.580;8.818;2022-12-29T09:41:51;98242.25;;;10.65;100.00
10921;BME280;5513;50.580;8.818;2022-12-29T09:44:43;98242.25;;;10.54;100.00
10921;BME280;5513;50.580;8.818;2022-12-29T09:47:15;98256.47;;;10.53;100.00
10921;BME280;5513;50.580;8.818;2022-12-29T09:49:47;98247.78;;;10.73;100.00
10921;BME280;5513;50.580;8.818;2022-12-29T09:52:21;98250.06;;;10.67;100.00
10921;BME280;5513;50.580;8.818;2022-12-29T09:54:58;98263.69;;;10.62;100.00
10921;BME280;5513;50.580;8.818;2022-12-29T09:57:43;98253.22;;;10.72;100.00
10921;BME280;5513;50.580;8.818;2022-12-29T10:00:21;98249.47;;;10.63;100.00
10921;BME280;5513;50.580;8.818;2022-12-29T10:02:54;98251.28;;;10.63;100.00
10921;BME280;5513;50.580;8.818;2022-12-29T10:05:32;98253.81;;;10.75;100.00
10921;BME280;5513;50.580;8.818;2022-12-29T10:08:14;98261.38;;;10.46;100.00
10921;BME280;5513;50.580;8.818;2022-12-29T10:10:54;98261.00;;;10.40;100.00
10921;BME280;5513;50.580;8.818;2022-12-29T10:13:28;98257.88;;;10.35;100.00
10921;BME280;5513;50.580;8.818;2022-12-29T10:16:09;98259.31;;;10.39;100.00
10921;BME280;5513;50.580;8.818;2022-12-29T10:19:09;98264.28;;;10.43;100.00
10921;BME280;5513;50.580;8.818;2022-12-29T10:21:55;98266.31;;;10.51;100.00
10921;BME280;5513;50.580;8.818;2022-12-29T10:24:29;98284.50;;;10.44;100.00
10921;BME280;5513;50.580;8.818;2022-12-29T10:27:01;98280.16;;;10.43;100.00
10921;BME280;5513;50.580;8.818;2022-12-29T10:29:36;98270.53;;;10.53;100.00
10921;BME280;5513;50.580;8.818;2022-12-29T10:32:18;98258.16;;;10.43;100.00
10921;BME280;5513;50.580;8.818;2022-12-29T10:34:57;98278.34;;;10.55;100.00
10921;BME280;5513;50.580;8.818;2022-12-29T10:37:32;98272.56;;;10.50;100.00
10921;BME280;5513;50.580;8.818;2022-12-29T10:40:14;98269.31;;;10.46;100.00
10921;BME280;5513;50.580;8.818;2022-12-29T10:42:46;98263.19;;;10.46;100.00
10921;BME280;5513;50.580;8.818;2022-12-29T10:45:19;98268.03;;;10.52;100.00
10921;BME280;5513;50.580;8.818;2022-12-29T10:47:55;98266.09;;;10.43;100.00
10921;BME280;5513;50.580;8.818;2022-12-29T10:50:27;98263.06;;;10.47;100.00
10921;BME280;5513;50.580;8.818;2022-12-29T10:53:02;98250.91;;;10.56;100.00
10921;BME280;5513;50.580;8.818;2022-12-29T10:55:35;98251.38;;;10.61;100.00
10921;BME280;5513;50.580;8.818;2022-12-29T10:58:11;98257.56;;;10.62;100.00
10921;BME280;5513;50.580;8.818;2022-12-29T11:00:49;98260.19;;;10.62;100.00
10921;BME280;5513;50.580;8.818;2022-12-29T11:03:46;98245.88;;;10.64;100.00
10921;BME280;5513;50.580;8.818;2022-12-29T11:06:21;98255.75;;;10.62;100.00
10921;BME280;5513;50.580;8.818;2022-12-29T11:08:55;98266.09;;;10.65;100.00
10921;BME280;5513;50.580;8.818;2022-12-29T11:11:27;98263.56;;;10.52;100.00
10921;BME280;5513;50.580;8.818;2022-12-29T11:14:08;98275.84;;;10.42;100.00
10921;BME280;5513;50.580;8.818;2022-12-29T11:16:39;98266.66;;;10.35;100.00
10921;BME280;5513;50.580;8.818;2022-12-29T11:19:21;98278.81;;;10.26;100.00
10921;BME280;5513;50.580;8.818;2022-12-29T11:21:52;98264.91;;;10.12;100.00
10921;BME280;5513;50.580;8.818;2022-12-29T11:24:22;98272.72;;;10.13;100.00
10921;BME280;5513;50.580;8.818;2022-12-29T11:26:54;98284.47;;;9.98;100.00
10921;BME280;5513;50.580;8.818;2022-12-29T11:29:28;98294.81;;;10.01;100.00
10921;BME280;5513;50.580;8.818;2022-12-29T11:31:58;98294.69;;;10.02;100.00
10921;BME280;5513;50.580;8.818;2022-12-29T11:34:32;98290.03;;;10.06;100.00
10921;BME280;5513;50.580;8.818;2022-12-29T11:37:02;98290.94;;;9.94;100.00
10921;BME280;5513;50.580;8.818;2022-12-29T11:39:38;98313.69;;;9.96;100.00
10921;BME280;5513;50.580;8.818;2022-12-29T11:42:14;98312.50;;;10.00;100.00
10921;BME280;5513;50.580;8.818;2022-12-29T11:44:45;98320.03;;;9.94;100.00
10921;BME280;5513;50.580;8.818;2022-12-29T11:47:22;98316.34;;;9.96;100.00
10921;BME280;5513;50.580;8.818;2022-12-29T11:49:55;98312.16;;;10.05;100.00
10921;BME280;5513;50.580;8.818;2022-12-29T11:52:29;98311.53;;;10.01;100.00
10921;BME280;5513;50.580;8.818;2022-12-29T11:55:00;98317.22;;;10.08;100.00
10921;BME280;5513;50.580;8.818;2022-12-29T11:57:31;98316.00;;;10.12;100.00
10921;BME280;5513;50.580;8.818;2022-12-29T12:00:03;98304.56;;;10.24;100.00
10921;BME280;5513;50.580;8.818;2022-12-29T12:02:53;98302.88;;;10.35;100.00
10921;BME280;5513;50.580;8.818;2022-12-29T12:05:30;98296.25;;;10.40;100.00
10921;BME280;5513;50.580;8.818;2022-12-29T12:08:09;98299.16;;;10.48;100.00
10921;BME280;5513;50.580;8.818;2022-12-29T12:10:51;98304.97;;;10.53;100.00
10921;BME280;5513;50.580;8.818;2022-12-29T12:13:29;98293.16;;;10.57;100.00
10921;BME280;5513;50.580;8.818;2022-12-29T12:16:05;98278.22;;;10.56;100.00
10921;BME280;5513;50.580;8.818;2022-12-29T12:18:39;98283.66;;;10.66;100.00
10921;BME280;5513;50.580;8.818;2022-12-29T12:21:15;98279.06;;;10.68;100.00
10921;BME280;5513;50.580;8.818;2022-12-29T12:24:15;98270.66;;;10.74;100.00
10921;BME280;5513;50.580;8.818;2022-12-29T12:26:55;98278.47;;;10.76;100.00
10921;BME280;5513;50.580;8.818;2022-12-29T12:29:33;98268.13;;;10.84;100.00
10921;BME280;5513;50.580;8.818;2022-12-29T12:32:11;98279.09;;;10.91;100.00
10921;BME280;5513;50.580;8.818;2022-12-29T12:34:48;98271.00;;;10.92;100.00
10921;BME280;5513;50.580;8.818;2022-12-29T12:40:39;98256.41;;;10.98;100.00
10921;BME280;5513;50.580;8.818;2022-12-29T12:43:35;98259.06;;;10.98;100.00
10921;BME280;5513;50.580;8.818;2022-12-29T12:46:18;98259.66;;;11.12;100.00
10921;BME280;5513;50.580;8.818;2022-12-29T12:49:06;98243.97;;;11.21;100.00
10921;BME280;5513;50.580;8.818;2022-12-29T12:51:43;98229.44;;;11.36;100.00
10921;BME280;5513;50.580;8.818;2022-12-29T12:54:30;98232.28;;;11.76;100.00
10921;BME280;5513;50.580;8.818;2022-12-29T12:57:14;98223.78;;;11.93;100.00
10921;BME280;5513;50.580;8.818;2022-12-29T12:59:52;98240.91;;;12.31;100.00
10921;BME280;5513;50.580;8.818;2022-12-29T13:02:36;98229.88;;;12.26;100.00
10921;BME280;5513;50.580;8.818;2022-12-29T13:05:29;98231.69;;;12.56;100.00
10921;BME280;5513;50.580;8.818;2022-12-29T13:08:27;98243.72;;;12.29;100.00
10921;BME280;5513;50.580;8.818;2022-12-29T13:11:10;98235.72;;;11.99;100.00
10921;BME280;5513;50.580;8.818;2022-12-29T13:16:42;98246.63;;;11.53;100.00
10921;BME280;5513;50.580;8.818;2022-12-29T13:19:21;98250.75;;;11.45;100.00
10921;BME280;5513;50.580;8.818;2022-12-29T13:22:02;98243.69;;;11.35;100.00
10921;BME280;5513;50.580;8.818;2022-12-29T13:24:42;98248.13;;;11.34;100.00
10921;BME280;5513;50.580;8.818;2022-12-29T13:27:19;98254.84;;;11.38;100.00
10921;BME280;5513;50.580;8.818;2022-12-29T13:29:59;98249.38;;;11.30;100.00
10921;BME280;5513;50.580;8.818;2022-12-29T13:32:37;98243.94;;;11.32;100.00
10921;BME280;5513;50.580;8.818;2022-12-29T13:35:23;98251.53;;;11.25;100.00
10921;BME280;5513;50.580;8.818;2022-12-29T13:37:59;98241.41;;;11.30;100.00
10921;BME280;5513;50.580;8.818;2022-12-29T13:40:34;98253.00;;;11.29;100.00
10921;BME280;5513;50.580;8.818;2022-12-29T13:43:06;98245.97;;;11.28;100.00
10921;BME280;5513;50.580;8.818;2022-12-29T13:45:39;98245.41;;;11.25;100.00
10921;BME280;5513;50.580;8.818;2022-12-29T13:48:15;98245.88;;;11.18;100.00
10921;BME280;5513;50.580;8.818;2022-12-29T13:50:50;98253.84;;;11.18;100.00
10921;BME280;5513;50.580;8.818;2022-12-29T13:53:30;98245.78;;;11.20;100.00